sensor_id;sensor_type;location;lat;lon;timestamp;P1;durP1;ratioP1;P2;durP2;ratioP2
23394;SDS011;11870;53.084;18.206;2023-01-29T00:01:18;19.08;;;8.23;;
23394;SDS011;11870;53.084;18.206;2023-01-29T00:03:44;21.70;;;7.75;;
23394;SDS011;11870;53.084;18.206;2023-01-29T00:06:11;21.13;;;7.60;;
23394;SDS011;11870;53.084;18.206;2023-01-29T00:08:37;20.48;;;8.52;;
23394;SDS011;11870;53.084;18.206;2023-01-29T00:11:05;22.98;;;8.35;;
23394;SDS011;11870;53.084;18.206;2023-01-29T00:13:32;22.88;;;8.70;;
23394;SDS011;11870;53.084;18.206;2023-01-29T00:16:01;19.15;;;8.93;;
23394;SDS011;11870;53.084;18.206;2023-01-29T00:18:28;18.55;;;7.97;;
23394;SDS011;11870;53.084;18.206;2023-01-29T00:20:55;16.88;;;8.02;;
23394;SDS011;11870;53.084;18.206;2023-01-29T00:23:21;23.65;;;7.93;;
23394;SDS011;11870;53.084;18.206;2023-01-29T00:25:48;23.80;;;7.97;;
23394;SDS011;11870;53.084;18.206;2023-01-29T00:28:14;21.85;;;8.60;;
23394;SDS011;11870;53.084;18.206;2023-01-29T00:30:40;18.60;;;7.95;;
23394;SDS011;11870;53.084;18.206;2023-01-29T00:33:06;19.55;;;8.32;;
23394;SDS011;11870;53.084;18.206;2023-01-29T00:35:33;21.95;;;8.98;;
23394;SDS011;11870;53.084;18.206;2023-01-29T00:37:59;25.50;;;8.45;;
23394;SDS011;11870;53.084;18.206;2023-01-29T00:40:26;20.45;;;8.20;;
23394;SDS011;11870;53.084;18.206;2023-01-29T00:42:52;15.75;;;7.50;;
23394;SDS011;11870;53.084;18.206;2023-01-29T00:45:37;19.85;;;8.20;;
23394;SDS011;11870;53.084;18.206;2023-01-29T00:48:03;20.88;;;8.25;;
23394;SDS011;11870;53.084;18.206;2023-01-29T00:50:30;17.38;;;7.32;;
23394;SDS011;11870;53.084;18.206;2023-01-29T00:52:56;15.13;;;7.25;;
23394;SDS011;11870;53.084;18.206;2023-01-29T00:55:23;17.75;;;7.82;;
23394;SDS011;11870;53.084;18.206;2023-01-29T00:57:49;16.30;;;7.65;;
23394;SDS011;11870;53.084;18.206;2023-01-29T01:00:17;16.15;;;7.47;;
23394;SDS011;11870;53.084;18.206;2023-01-29T01:02:43;14.52;;;6.70;;
23394;SDS011;11870;53.084;18.206;2023-01-29T01:05:29;13.02;;;6.18;;
23394;SDS011;11870;53.084;18.206;2023-01-29T01:07:56;15.45;;;6.47;;
23394;SDS011;11870;53.084;18.206;2023-01-29T01:10:28;24.52;;;7.70;;
23394;SDS011;11870;53.084;18.206;2023-01-29T01:12:57;15.98;;;7.05;;
23394;SDS011;11870;53.084;18.206;2023-01-29T01:15:33;13.57;;;5.97;;
23394;SDS011;11870;53.084;18.206;2023-01-29T01:18:02;12.82;;;5.93;;
23394;SDS011;11870;53.084;18.206;2023-01-29T01:20:29;18.05;;;6.28;;
23394;SDS011;11870;53.084;18.206;2023-01-29T01:22:56;13.93;;;6.15;;
23394;SDS011;11870;53.084;18.206;2023-01-29T01:25:23;14.52;;;6.50;;
23394;SDS011;11870;53.084;18.206;2023-01-29T01:27:54;13.23;;;5.30;;
23394;SDS011;11870;53.084;18.206;2023-01-29T01:30:22;19.33;;;6.47;;
23394;SDS011;11870;53.084;18.206;2023-01-29T01:32:48;12.52;;;5.85;;
23394;SDS011;11870;53.084;18.206;2023-01-29T01:35:15;16.15;;;5.82;;
23394;SDS011;11870;53.084;18.206;2023-01-29T01:37:41;13.80;;;5.47;;
23394;SDS011;11870;53.084;18.206;2023-01-29T01:40:12;12.98;;;5.72;;
23394;SDS011;11870;53.084;18.206;2023-01-29T01:42:42;9.73;;;4.93;;
23394;SDS011;11870;53.084;18.206;2023-01-29T01:45:20;12.18;;;5.25;;
23394;SDS011;11870;53.084;18.206;2023-01-29T01:47:48;10.10;;;5.03;;
23394;SDS011;11870;53.084;18.206;2023-01-29T01:50:25;14.68;;;4.90;;
23394;SDS011;11870;53.084;18.206;2023-01-29T01:52:54;12.95;;;4.65;;
23394;SDS011;11870;53.084;18.206;2023-01-29T01:55:27;8.50;;;4.60;;
23394;SDS011;11870;53.084;18.206;2023-01-29T01:58:00;14.50;;;5.07;;
23394;SDS011;11870;53.084;18.206;2023-01-29T02:00:30;10.05;;;4.38;;
23394;SDS011;11870;53.084;18.206;2023-01-29T02:02:57;8.80;;;4.30;;
23394;SDS011;11870;53.084;18.206;2023-01-29T02:05:42;7.47;;;4.00;;
23394;SDS011;11870;53.084;18.206;2023-01-29T02:08:29;9.35;;;4.40;;
23394;SDS011;11870;53.084;18.206;2023-01-29T02:11:20;8.65;;;3.88;;
23394;SDS011;11870;53.084;18.206;2023-01-29T02:13:47;9.48;;;4.43;;
23394;SDS011;11870;53.084;18.206;2023-01-29T02:16:19;6.93;;;3.25;;
23394;SDS011;11870;53.084;18.206;2023-01-29T02:18:45;11.02;;;3.97;;
23394;SDS011;11870;53.084;18.206;2023-01-29T02:28:46;10.23;;;3.45;;
23394;SDS011;11870;53.084;18.206;2023-01-29T02:31:44;13.15;;;4.00;;
23394;SDS011;11870;53.084;18.206;2023-01-29T02:34:21;8.75;;;4.35;;
23394;SDS011;11870;53.084;18.206;2023-01-29T02:37:21;6.78;;;3.67;;
23394;SDS011;11870;53.084;18.206;2023-01-29T02:40:02;8.68;;;3.60;;
23394;SDS011;11870;53.084;18.206;2023-01-29T02:42:56;7.82;;;3.78;;
23394;SDS011;11870;53.084;18.206;2023-01-29T02:45:45;7.50;;;3.35;;
23394;SDS011;11870;53.084;18.206;2023-01-29T02:48:18;8.25;;;3.50;;
23394;SDS011;11870;53.084;18.206;2023-01-29T02:53:20;7.28;;;3.50;;
23394;SDS011;11870;53.084;18.206;2023-01-29T02:56:09;5.97;;;3.30;;
23394;SDS011;11870;53.084;18.206;2023-01-29T03:01:07;4.35;;;2.63;;
23394;SDS011;11870;53.084;18.206;2023-01-29T03:03:41;7.07;;;3.50;;
23394;SDS011;11870;53.084;18.206;2023-01-29T03:06:14;8.55;;;3.67;;
23394;SDS011;11870;53.084;18.206;2023-01-29T03:11:14;6.70;;;3.33;;
23394;SDS011;11870;53.084;18.206;2023-01-29T03:16:13;8.88;;;3.47;;
23394;SDS011;11870;53.084;18.206;2023-01-29T03:19:36;12.82;;;3.47;;
23394;SDS011;11870;53.084;18.206;2023-01-29T03:21:56;8.48;;;3.60;;
23394;SDS011;11870;53.084;18.206;2023-01-29T03:27:21;9.18;;;3.63;;
23394;SDS011;11870;53.084;18.206;2023-01-29T03:30:09;5.07;;;2.83;;
23394;SDS011;11870;53.084;18.206;2023-01-29T03:32:56;6.43;;;3.03;;
23394;SDS011;11870;53.084;18.206;2023-01-29T03:35:27;9.18;;;3.22;;
23394;SDS011;11870;53.084;18.206;2023-01-29T03:38:02;8.95;;;3.33;;
23394;SDS011;11870;53.084;18.206;2023-01-29T03:40:49;6.68;;;3.00;;
23394;SDS011;11870;53.084;18.206;2023-01-29T03:43:28;6.88;;;3.25;;
23394;SDS011;11870;53.084;18.206;2023-01-29T03:49:01;5.57;;;3.10;;
23394;SDS011;11870;53.084;18.206;2023-01-29T03:51:37;8.48;;;3.92;;
23394;SDS011;11870;53.084;18.206;2023-01-29T03:54:24;6.60;;;3.28;;
23394;SDS011;11870;53.084;18.206;2023-01-29T03:57:34;10.55;;;4.28;;
23394;SDS011;11870;53.084;18.206;2023-01-29T04:02:30;8.73;;;3.50;;
23394;SDS011;11870;53.084;18.206;2023-01-29T04:05:11;8.48;;;3.30;;
23394;SDS011;11870;53.084;18.206;2023-01-29T04:07:43;6.25;;;2.95;;
23394;SDS011;11870;53.084;18.206;2023-01-29T04:10:17;8.43;;;3.10;;
23394;SDS011;11870;53.084;18.206;2023-01-29T04:12:50;6.93;;;3.28;;
23394;SDS011;11870;53.084;18.206;2023-01-29T04:15:26;5.97;;;3.10;;
23394;SDS011;11870;53.084;18.206;2023-01-29T04:17:55;8.32;;;3.88;;
23394;SDS011;11870;53.084;18.206;2023-01-29T04:20:21;7.85;;;3.17;;
23394;SDS011;11870;53.084;18.206;2023-01-29T04:22:51;7.25;;;3.30;;
23394;SDS011;11870;53.084;18.206;2023-01-29T04:25:25;8.25;;;3.38;;
23394;SDS011;11870;53.084;18.206;2023-01-29T04:30:30;7.80;;;3.10;;
23394;SDS011;11870;53.084;18.206;2023-01-29T04:39:10;4.93;;;3.30;;
23394;SDS011;11870;53.084;18.206;2023-01-29T04:41:35;7.43;;;3.40;;
23394;SDS011;11870;53.084;18.206;2023-01-29T04:52:21;7.18;;;3.50;;
23394;SDS011;11870;53.084;18.206;2023-01-29T04:55:16;5.55;;;3.15;;
23394;SDS011;11870;53.084;18.206;2023-01-29T04:57:49;7.63;;;3.30;;
23394;SDS011;11870;53.084;18.206;2023-01-29T05:02:45;8.95;;;3.20;;
23394;SDS011;11870;53.084;18.206;2023-01-29T05:05:12;6.57;;;3.10;;
23394;SDS011;11870;53.084;18.206;2023-01-29T05:07:40;5.50;;;3.20;;
23394;SDS011;11870;53.084;18.206;2023-01-29T05:10:08;7.80;;;3.30;;
23394;SDS011;11870;53.084;18.206;2023-01-29T05:12:35;6.82;;;3.17;;
23394;SDS011;11870;53.084;18.206;2023-01-29T05:15:02;6.82;;;3.33;;
23394;SDS011;11870;53.084;18.206;2023-01-29T05:17:32;7.40;;;3.33;;
23394;SDS011;11870;53.084;18.206;2023-01-29T05:19:58;6.70;;;3.08;;
23394;SDS011;11870;53.084;18.206;2023-01-29T05:22:25;6.95;;;3.17;;
23394;SDS011;11870;53.084;18.206;2023-01-29T05:24:51;6.05;;;3.20;;
23394;SDS011;11870;53.084;18.206;2023-01-29T05:27:19;6.25;;;3.30;;
23394;SDS011;11870;53.084;18.206;2023-01-29T05:30:07;7.60;;;3.00;;
23394;SDS011;11870;53.084;18.206;2023-01-29T05:32:34;5.38;;;3.00;;
23394;SDS011;11870;53.084;18.206;2023-01-29T05:35:01;6.55;;;3.50;;
23394;SDS011;11870;53.084;18.206;2023-01-29T05:37:27;6.57;;;2.95;;
23394;SDS011;11870;53.084;18.206;2023-01-29T05:39:53;6.82;;;3.33;;
23394;SDS011;11870;53.084;18.206;2023-01-29T05:42:19;7.38;;;3.58;;
23394;SDS011;11870;53.084;18.206;2023-01-29T05:44:46;8.30;;;3.90;;
23394;SDS011;11870;53.084;18.206;2023-01-29T05:47:12;5.97;;;3.60;;
23394;SDS011;11870;53.084;18.206;2023-01-29T05:49:38;7.80;;;4.05;;
23394;SDS011;11870;53.084;18.206;2023-01-29T05:52:04;7.88;;;4.38;;
23394;SDS011;11870;53.084;18.206;2023-01-29T05:54:31;11.38;;;3.65;;
23394;SDS011;11870;53.084;18.206;2023-01-29T05:56:57;9.48;;;4.07;;
23394;SDS011;11870;53.084;18.206;2023-01-29T05:59:23;11.15;;;4.00;;
23394;SDS011;11870;53.084;18.206;2023-01-29T06:01:50;7.00;;;4.00;;
23394;SDS011;11870;53.084;18.206;2023-01-29T06:04:16;8.13;;;4.05;;
23394;SDS011;11870;53.084;18.206;2023-01-29T06:06:42;6.45;;;3.58;;
23394;SDS011;11870;53.084;18.206;2023-01-29T06:09:09;8.00;;;4.13;;
23394;SDS011;11870;53.084;18.206;2023-01-29T06:11:36;10.73;;;3.97;;
23394;SDS011;11870;53.084;18.206;2023-01-29T06:14:02;9.98;;;4.35;;
23394;SDS011;11870;53.084;18.206;2023-01-29T06:16:28;10.57;;;4.53;;
23394;SDS011;11870;53.084;18.206;2023-01-29T06:18:55;10.13;;;4.45;;
23394;SDS011;11870;53.084;18.206;2023-01-29T06:21:21;8.23;;;4.57;;
23394;SDS011;11870;53.084;18.206;2023-01-29T06:23:47;9.27;;;4.90;;
23394;SDS011;11870;53.084;18.206;2023-01-29T06:26:14;14.07;;;4.63;;
23394;SDS011;11870;53.084;18.206;2023-01-29T06:28:41;8.38;;;4.90;;
23394;SDS011;11870;53.084;18.206;2023-01-29T06:31:08;9.35;;;5.18;;
23394;SDS011;11870;53.084;18.206;2023-01-29T06:33:35;9.50;;;5.07;;
23394;SDS011;11870;53.084;18.206;2023-01-29T06:36:02;7.28;;;4.68;;
23394;SDS011;11870;53.084;18.206;2023-01-29T06:38:29;14.50;;;5.15;;
23394;SDS011;11870;53.084;18.206;2023-01-29T06:40:56;13.63;;;5.47;;
23394;SDS011;11870;53.084;18.206;2023-01-29T06:43:22;9.45;;;5.43;;
23394;SDS011;11870;53.084;18.206;2023-01-29T06:45:49;12.70;;;5.63;;
23394;SDS011;11870;53.084;18.206;2023-01-29T06:48:17;12.50;;;5.00;;
23394;SDS011;11870;53.084;18.206;2023-01-29T06:50:43;11.18;;;5.50;;
23394;SDS011;11870;53.084;18.206;2023-01-29T06:53:10;10.07;;;5.38;;
23394;SDS011;11870;53.084;18.206;2023-01-29T06:55:36;13.27;;;5.57;;
23394;SDS011;11870;53.084;18.206;2023-01-29T06:58:10;12.20;;;5.50;;
23394;SDS011;11870;53.084;18.206;2023-01-29T07:00:36;10.75;;;4.93;;
23394;SDS011;11870;53.084;18.206;2023-01-29T07:03:03;11.02;;;5.80;;
23394;SDS011;11870;53.084;18.206;2023-01-29T07:05:29;13.38;;;5.70;;
23394;SDS011;11870;53.084;18.206;2023-01-29T07:07:56;13.55;;;5.55;;
23394;SDS011;11870;53.084;18.206;2023-01-29T07:10:23;10.98;;;5.68;;
23394;SDS011;11870;53.084;18.206;2023-01-29T07:12:49;14.20;;;5.82;;
23394;SDS011;11870;53.084;18.206;2023-01-29T07:15:15;13.65;;;7.20;;
23394;SDS011;11870;53.084;18.206;2023-01-29T07:17:58;15.43;;;6.40;;
23394;SDS011;11870;53.084;18.206;2023-01-29T07:20:26;13.18;;;6.07;;
23394;SDS011;11870;53.084;18.206;2023-01-29T07:22:53;10.63;;;6.07;;
23394;SDS011;11870;53.084;18.206;2023-01-29T07:25:20;12.15;;;5.80;;
23394;SDS011;11870;53.084;18.206;2023-01-29T07:27:46;15.13;;;6.00;;
23394;SDS011;11870;53.084;18.206;2023-01-29T07:30:14;13.43;;;5.25;;
23394;SDS011;11870;53.084;18.206;2023-01-29T07:32:40;14.73;;;6.43;;
23394;SDS011;11870;53.084;18.206;2023-01-29T07:35:07;11.90;;;6.25;;
23394;SDS011;11870;53.084;18.206;2023-01-29T07:37:34;11.35;;;6.50;;
23394;SDS011;11870;53.084;18.206;2023-01-29T07:40:00;14.48;;;6.43;;
23394;SDS011;11870;53.084;18.206;2023-01-29T07:42:27;14.27;;;6.75;;
23394;SDS011;11870;53.084;18.206;2023-01-29T07:44:53;14.48;;;6.60;;
23394;SDS011;11870;53.084;18.206;2023-01-29T07:47:19;10.73;;;6.07;;
23394;SDS011;11870;53.084;18.206;2023-01-29T07:49:45;14.50;;;6.32;;
23394;SDS011;11870;53.084;18.206;2023-01-29T07:52:12;12.23;;;6.35;;
23394;SDS011;11870;53.084;18.206;2023-01-29T07:54:38;10.95;;;6.00;;
23394;SDS011;11870;53.084;18.206;2023-01-29T07:57:04;13.63;;;6.22;;
23394;SDS011;11870;53.084;18.206;2023-01-29T07:59:31;15.75;;;7.00;;
23394;SDS011;11870;53.084;18.206;2023-01-29T08:01:57;16.45;;;7.18;;
23394;SDS011;11870;53.084;18.206;2023-01-29T08:04:23;13.70;;;6.50;;
23394;SDS011;11870;53.084;18.206;2023-01-29T08:06:49;13.10;;;6.80;;
23394;SDS011;11870;53.084;18.206;2023-01-29T08:09:15;14.43;;;6.35;;
23394;SDS011;11870;53.084;18.206;2023-01-29T08:11:42;11.95;;;6.10;;
23394;SDS011;11870;53.084;18.206;2023-01-29T08:14:08;14.65;;;6.65;;
23394;SDS011;11870;53.084;18.206;2023-01-29T08:16:35;15.50;;;6.68;;
23394;SDS011;11870;53.084;18.206;2023-01-29T08:19:01;15.07;;;7.22;;
23394;SDS011;11870;53.084;18.206;2023-01-29T08:21:27;14.07;;;6.78;;
23394;SDS011;11870;53.084;18.206;2023-01-29T08:23:53;13.77;;;6.80;;
23394;SDS011;11870;53.084;18.206;2023-01-29T08:26:20;14.65;;;6.13;;
23394;SDS011;11870;53.084;18.206;2023-01-29T08:28:46;15.85;;;6.60;;
23394;SDS011;11870;53.084;18.206;2023-01-29T08:31:13;13.15;;;6.85;;
23394;SDS011;11870;53.084;18.206;2023-01-29T08:33:39;11.80;;;6.68;;
23394;SDS011;11870;53.084;18.206;2023-01-29T08:36:06;12.52;;;6.47;;
23394;SDS011;11870;53.084;18.206;2023-01-29T08:38:33;13.70;;;6.25;;
23394;SDS011;11870;53.084;18.206;2023-01-29T08:40:59;12.45;;;6.20;;
23394;SDS011;11870;53.084;18.206;2023-01-29T08:43:25;11.88;;;5.95;;
23394;SDS011;11870;53.084;18.206;2023-01-29T08:45:52;12.45;;;6.25;;
23394;SDS011;11870;53.084;18.206;2023-01-29T08:48:18;15.18;;;6.80;;
23394;SDS011;11870;53.084;18.206;2023-01-29T08:50:44;11.90;;;6.32;;
23394;SDS011;11870;53.084;18.206;2023-01-29T08:53:11;14.13;;;6.88;;
23394;SDS011;11870;53.084;18.206;2023-01-29T08:55:38;13.00;;;6.45;;
23394;SDS011;11870;53.084;18.206;2023-01-29T08:58:07;12.60;;;6.40;;
23394;SDS011;11870;53.084;18.206;2023-01-29T09:00:35;14.98;;;6.63;;
23394;SDS011;11870;53.084;18.206;2023-01-29T09:03:02;14.35;;;6.65;;
23394;SDS011;11870;53.084;18.206;2023-01-29T09:05:28;15.88;;;6.90;;
23394;SDS011;11870;53.084;18.206;2023-01-29T09:07:57;12.32;;;6.40;;
23394;SDS011;11870;53.084;18.206;2023-01-29T09:10:23;13.98;;;6.60;;
23394;SDS011;11870;53.084;18.206;2023-01-29T09:12:50;12.48;;;6.70;;
23394;SDS011;11870;53.084;18.206;2023-01-29T09:15:16;12.50;;;7.07;;
23394;SDS011;11870;53.084;18.206;2023-01-29T09:17:42;13.40;;;6.20;;
23394;SDS011;11870;53.084;18.206;2023-01-29T09:20:09;11.75;;;6.38;;
23394;SDS011;11870;53.084;18.206;2023-01-29T09:22:35;15.07;;;6.60;;
23394;SDS011;11870;53.084;18.206;2023-01-29T09:25:01;13.57;;;6.47;;
23394;SDS011;11870;53.084;18.206;2023-01-29T09:27:28;10.70;;;5.70;;
23394;SDS011;11870;53.084;18.206;2023-01-29T09:29:54;14.00;;;7.07;;
23394;SDS011;11870;53.084;18.206;2023-01-29T09:32:20;14.23;;;6.40;;
23394;SDS011;11870;53.084;18.206;2023-01-29T09:34:47;12.30;;;6.45;;
23394;SDS011;11870;53.084;18.206;2023-01-29T09:37:13;14.00;;;6.63;;
23394;SDS011;11870;53.084;18.206;2023-01-29T09:39:42;14.18;;;6.78;;
23394;SDS011;11870;53.084;18.206;2023-01-29T09:42:10;14.23;;;6.85;;
23394;SDS011;11870;53.084;18.206;2023-01-29T09:45:03;12.38;;;6.53;;
23394;SDS011;11870;53.084;18.206;2023-01-29T09:47:35;10.85;;;5.72;;
23394;SDS011;11870;53.084;18.206;2023-01-29T09:53:02;13.70;;;6.63;;
23394;SDS011;11870;53.084;18.206;2023-01-29T09:55:55;15.35;;;7.72;;
23394;SDS011;11870;53.084;18.206;2023-01-29T09:58:31;16.85;;;7.47;;
23394;SDS011;11870;53.084;18.206;2023-01-29T10:12:12;13.73;;;6.97;;
23394;SDS011;11870;53.084;18.206;2023-01-29T10:15:20;18.35;;;7.35;;
23394;SDS011;11870;53.084;18.206;2023-01-29T10:22:59;16.30;;;7.45;;
23394;SDS011;11870;53.084;18.206;2023-01-29T10:25:59;17.38;;;8.10;;
23394;SDS011;11870;53.084;18.206;2023-01-29T10:30:56;17.95;;;8.25;;
23394;SDS011;11870;53.084;18.206;2023-01-29T10:33:34;17.45;;;7.70;;
23394;SDS011;11870;53.084;18.206;2023-01-29T10:36:07;19.58;;;8.02;;
23394;SDS011;11870;53.084;18.206;2023-01-29T10:38:42;19.05;;;7.53;;
23394;SDS011;11870;53.084;18.206;2023-01-29T10:46:38;18.08;;;8.68;;
23394;SDS011;11870;53.084;18.206;2023-01-29T10:52:28;20.50;;;8.65;;
23394;SDS011;11870;53.084;18.206;2023-01-29T10:58:15;18.00;;;7.60;;
23394;SDS011;11870;53.084;18.206;2023-01-29T11:01:00;16.38;;;8.20;;
23394;SDS011;11870;53.084;18.206;2023-01-29T11:03:28;18.98;;;8.23;;
23394;SDS011;11870;53.084;18.206;2023-01-29T11:08:39;21.35;;;9.98;;
23394;SDS011;11870;53.084;18.206;2023-01-29T11:11:14;17.55;;;8.13;;
23394;SDS011;11870;53.084;18.206;2023-01-29T11:13:43;16.75;;;8.40;;
23394;SDS011;11870;53.084;18.206;2023-01-29T11:16:25;18.40;;;8.35;;
23394;SDS011;11870;53.084;18.206;2023-01-29T11:18:58;20.90;;;9.93;;
23394;SDS011;11870;53.084;18.206;2023-01-29T11:21:26;20.35;;;9.68;;
23394;SDS011;11870;53.084;18.206;2023-01-29T11:24:06;23.13;;;10.30;;
23394;SDS011;11870;53.084;18.206;2023-01-29T11:26:42;18.05;;;9.05;;
23394;SDS011;11870;53.084;18.206;2023-01-29T11:31:55;20.23;;;8.27;;
23394;SDS011;11870;53.084;18.206;2023-01-29T11:34:23;17.10;;;8.60;;
23394;SDS011;11870;53.084;18.206;2023-01-29T11:36:56;17.77;;;8.05;;
23394;SDS011;11870;53.084;18.206;2023-01-29T11:39:24;18.58;;;8.65;;
23394;SDS011;11870;53.084;18.206;2023-01-29T11:41:56;19.42;;;8.45;;
23394;SDS011;11870;53.084;18.206;2023-01-29T11:44:33;17.52;;;8.27;;
23394;SDS011;11870;53.084;18.206;2023-01-29T11:47:27;20.13;;;8.48;;
23394;SDS011;11870;53.084;18.206;2023-01-29T11:49:56;19.48;;;9.35;;
23394;SDS011;11870;53.084;18.206;2023-01-29T11:52:33;21.27;;;9.52;;
23394;SDS011;11870;53.084;18.206;2023-01-29T11:55:04;20.65;;;8.63;;
23394;SDS011;11870;53.084;18.206;2023-01-29T11:57:39;19.95;;;9.00;;
23394;SDS011;11870;53.084;18.206;2023-01-29T12:00:22;20.05;;;8.80;;
23394;SDS011;11870;53.084;18.206;2023-01-29T12:05:39;18.77;;;8.95;;
23394;SDS011;11870;53.084;18.206;2023-01-29T12:08:14;22.10;;;10.68;;
23394;SDS011;11870;53.084;18.206;2023-01-29T12:10:43;19.00;;;9.45;;
23394;SDS011;11870;53.084;18.206;2023-01-29T12:15:40;22.92;;;10.00;;
23394;SDS011;11870;53.084;18.206;2023-01-29T12:18:11;20.25;;;9.30;;
23394;SDS011;11870;53.084;18.206;2023-01-29T12:21:04;20.83;;;9.20;;
23394;SDS011;11870;53.084;18.206;2023-01-29T12:26:29;20.25;;;8.77;;
23394;SDS011;11870;53.084;18.206;2023-01-29T12:32:19;24.33;;;9.38;;
23394;SDS011;11870;53.084;18.206;2023-01-29T12:41:04;20.67;;;8.77;;
23394;SDS011;11870;53.084;18.206;2023-01-29T12:43:45;21.05;;;9.20;;
23394;SDS011;11870;53.084;18.206;2023-01-29T12:46:30;20.80;;;8.93;;
23394;SDS011;11870;53.084;18.206;2023-01-29T12:49:02;19.33;;;9.15;;
23394;SDS011;11870;53.084;18.206;2023-01-29T12:51:36;22.58;;;10.25;;
23394;SDS011;11870;53.084;18.206;2023-01-29T12:54:17;18.77;;;8.55;;
23394;SDS011;11870;53.084;18.206;2023-01-29T12:56:54;23.95;;;8.73;;
23394;SDS011;11870;53.084;18.206;2023-01-29T12:59:32;20.23;;;8.88;;
23394;SDS011;11870;53.084;18.206;2023-01-29T13:02:15;20.85;;;8.85;;
23394;SDS011;11870;53.084;18.206;2023-01-29T13:07:41;21.23;;;8.85;;
23394;SDS011;11870;53.084;18.206;2023-01-29T13:10:12;20.67;;;9.38;;
23394;SDS011;11870;53.084;18.206;2023-01-29T13:12:47;20.02;;;9.07;;
23394;SDS011;11870;53.084;18.206;2023-01-29T13:15:37;18.20;;;8.35;;
23394;SDS011;11870;53.084;18.206;2023-01-29T13:18:53;25.50;;;9.73;;
23394;SDS011;11870;53.084;18.206;2023-01-29T13:20:58;22.30;;;9.82;;
23394;SDS011;11870;53.084;18.206;2023-01-29T13:23:38;17.42;;;8.65;;
23394;SDS011;11870;53.084;18.206;2023-01-29T13:26:07;25.48;;;10.27;;
23394;SDS011;11870;53.084;18.206;2023-01-29T13:28:34;26.50;;;10.38;;
23394;SDS011;11870;53.084;18.206;2023-01-29T13:33:58;22.52;;;10.45;;
23394;SDS011;11870;53.084;18.206;2023-01-29T13:36:46;21.17;;;9.40;;
23394;SDS011;11870;53.084;18.206;2023-01-29T13:41:42;23.95;;;10.52;;
23394;SDS011;11870;53.084;18.206;2023-01-29T13:44:44;22.80;;;10.38;;
23394;SDS011;11870;53.084;18.206;2023-01-29T13:47:04;23.83;;;9.00;;
23394;SDS011;11870;53.084;18.206;2023-01-29T13:52:12;21.40;;;9.52;;
23394;SDS011;11870;53.084;18.206;2023-01-29T13:54:39;26.10;;;10.88;;
23394;SDS011;11870;53.084;18.206;2023-01-29T13:57:17;20.33;;;9.50;;
23394;SDS011;11870;53.084;18.206;2023-01-29T14:00:04;27.10;;;10.85;;
23394;SDS011;11870;53.084;18.206;2023-01-29T14:02:30;22.42;;;10.75;;
23394;SDS011;11870;53.084;18.206;2023-01-29T14:07:54;24.33;;;9.48;;
23394;SDS011;11870;53.084;18.206;2023-01-29T14:10:34;27.88;;;10.90;;
23394;SDS011;11870;53.084;18.206;2023-01-29T14:15:43;26.48;;;10.65;;
23394;SDS011;11870;53.084;18.206;2023-01-29T14:18:30;26.05;;;10.10;;
23394;SDS011;11870;53.084;18.206;2023-01-29T14:21:00;26.10;;;10.55;;
23394;SDS011;11870;53.084;18.206;2023-01-29T14:25:56;25.30;;;10.20;;
23394;SDS011;11870;53.084;18.206;2023-01-29T14:28:27;24.33;;;11.10;;
23394;SDS011;11870;53.084;18.206;2023-01-29T14:30:55;31.33;;;11.43;;
23394;SDS011;11870;53.084;18.206;2023-01-29T14:33:23;27.45;;;9.95;;
23394;SDS011;11870;53.084;18.206;2023-01-29T14:35:52;27.63;;;11.07;;
23394;SDS011;11870;53.084;18.206;2023-01-29T14:38:21;28.10;;;9.82;;
23394;SDS011;11870;53.084;18.206;2023-01-29T14:40:49;31.13;;;10.55;;
23394;SDS011;11870;53.084;18.206;2023-01-29T14:43:16;23.30;;;9.23;;
23394;SDS011;11870;53.084;18.206;2023-01-29T14:45:46;27.38;;;10.38;;
23394;SDS011;11870;53.084;18.206;2023-01-29T14:48:18;23.50;;;9.65;;
23394;SDS011;11870;53.084;18.206;2023-01-29T14:51:06;22.20;;;9.52;;
23394;SDS011;11870;53.084;18.206;2023-01-29T14:56:44;24.67;;;9.13;;
23394;SDS011;11870;53.084;18.206;2023-01-29T14:59:21;22.15;;;8.60;;
23394;SDS011;11870;53.084;18.206;2023-01-29T15:02:00;21.27;;;9.32;;
23394;SDS011;11870;53.084;18.206;2023-01-29T15:04:39;23.02;;;9.65;;
23394;SDS011;11870;53.084;18.206;2023-01-29T15:09:36;27.88;;;10.13;;
23394;SDS011;11870;53.084;18.206;2023-01-29T15:18:06;20.65;;;9.48;;
23394;SDS011;11870;53.084;18.206;2023-01-29T15:20:37;23.75;;;9.55;;
23394;SDS011;11870;53.084;18.206;2023-01-29T15:23:22;23.80;;;9.32;;
23394;SDS011;11870;53.084;18.206;2023-01-29T15:25:50;28.65;;;9.90;;
23394;SDS011;11870;53.084;18.206;2023-01-29T15:28:18;21.75;;;9.35;;
23394;SDS011;11870;53.084;18.206;2023-01-29T15:30:49;24.17;;;11.20;;
23394;SDS011;11870;53.084;18.206;2023-01-29T15:33:18;31.90;;;12.88;;
23394;SDS011;11870;53.084;18.206;2023-01-29T15:35:45;23.17;;;10.13;;
23394;SDS011;11870;53.084;18.206;2023-01-29T15:38:21;23.08;;;10.23;;
23394;SDS011;11870;53.084;18.206;2023-01-29T15:40:54;21.75;;;9.43;;
23394;SDS011;11870;53.084;18.206;2023-01-29T15:43:34;25.63;;;10.25;;
23394;SDS011;11870;53.084;18.206;2023-01-29T15:46:03;21.55;;;10.02;;
23394;SDS011;11870;53.084;18.206;2023-01-29T15:48:35;23.02;;;10.25;;
23394;SDS011;11870;53.084;18.206;2023-01-29T15:51:05;25.63;;;11.30;;
23394;SDS011;11870;53.084;18.206;2023-01-29T15:58:58;24.45;;;10.48;;
23394;SDS011;11870;53.084;18.206;2023-01-29T16:01:26;23.35;;;10.27;;
23394;SDS011;11870;53.084;18.206;2023-01-29T16:03:53;25.67;;;10.75;;
23394;SDS011;11870;53.084;18.206;2023-01-29T16:06:21;25.33;;;10.63;;
23394;SDS011;11870;53.084;18.206;2023-01-29T16:08:49;23.90;;;9.52;;
23394;SDS011;11870;53.084;18.206;2023-01-29T16:11:17;23.75;;;9.88;;
23394;SDS011;11870;53.084;18.206;2023-01-29T16:13:45;26.65;;;10.15;;
23394;SDS011;11870;53.084;18.206;2023-01-29T16:18:41;22.75;;;9.52;;
23394;SDS011;11870;53.084;18.206;2023-01-29T16:23:54;25.35;;;9.93;;
23394;SDS011;11870;53.084;18.206;2023-01-29T16:26:33;26.60;;;9.75;;
23394;SDS011;11870;53.084;18.206;2023-01-29T16:29:08;28.95;;;9.98;;
23394;SDS011;11870;53.084;18.206;2023-01-29T16:31:37;27.02;;;10.32;;
23394;SDS011;11870;53.084;18.206;2023-01-29T16:34:05;28.08;;;10.25;;
23394;SDS011;11870;53.084;18.206;2023-01-29T16:36:34;28.85;;;11.20;;
23394;SDS011;11870;53.084;18.206;2023-01-29T16:39:01;29.60;;;11.40;;
23394;SDS011;11870;53.084;18.206;2023-01-29T16:41:31;26.67;;;11.27;;
23394;SDS011;11870;53.084;18.206;2023-01-29T16:44:29;25.77;;;10.43;;
23394;SDS011;11870;53.084;18.206;2023-01-29T16:47:04;28.55;;;10.77;;
23394;SDS011;11870;53.084;18.206;2023-01-29T16:50:23;24.20;;;10.70;;
23394;SDS011;11870;53.084;18.206;2023-01-29T16:53:02;24.73;;;11.60;;
23394;SDS011;11870;53.084;18.206;2023-01-29T16:55:40;25.20;;;10.10;;
23394;SDS011;11870;53.084;18.206;2023-01-29T16:58:19;25.70;;;10.52;;
23394;SDS011;11870;53.084;18.206;2023-01-29T17:00:52;26.23;;;10.98;;
23394;SDS011;11870;53.084;18.206;2023-01-29T17:03:31;26.17;;;11.25;;
23394;SDS011;11870;53.084;18.206;2023-01-29T17:06:07;26.15;;;10.95;;
23394;SDS011;11870;53.084;18.206;2023-01-29T17:08:37;28.73;;;11.88;;
23394;SDS011;11870;53.084;18.206;2023-01-29T17:11:07;29.75;;;11.20;;
23394;SDS011;11870;53.084;18.206;2023-01-29T17:13:37;28.80;;;10.82;;